createdAt,value
2022-08-26T00:00:42.732Z,22.50
2022-08-26T00:03:14.359Z,22.52
2022-08-26T00:05:46.437Z,22.46
2022-08-26T00:08:17.955Z,22.43
2022-08-26T00:10:50.226Z,22.40
2022-08-26T00:13:21.983Z,22.40
2022-08-26T00:15:54.068Z,22.39
2022-08-26T00:18:25.925Z,22.39
2022-08-26T00:20:58.114Z,22.36
2022-08-26T00:23:29.655Z,22.34
2022-08-26T00:26:02.253Z,22.32
2022-08-26T00:28:33.768Z,22.29
2022-08-26T00:31:06.196Z,22.27
2022-08-26T00:33:38.479Z,22.24
2022-08-26T00:36:14.444Z,22.24
2022-08-26T00:38:52.067Z,22.22
2022-08-26T00:41:23.588Z,22.21
2022-08-26T00:43:55.539Z,21.87
2022-08-26T00:46:29.180Z,22.21
2022-08-26T00:49:01.217Z,22.22
2022-08-26T00:51:33.713Z,22.24
2022-08-26T00:54:06.042Z,22.24
2022-08-26T00:56:38.143Z,22.20
2022-08-26T00:59:10.016Z,22.23
2022-08-26T01:01:41.541Z,22.25
2022-08-26T01:04:13.493Z,22.27
2022-08-26T01:06:45.019Z,22.32
2022-08-26T01:09:17.200Z,22.33
2022-08-26T01:11:48.824Z,22.32
2022-08-26T01:14:20.851Z,22.35
2022-08-26T01:16:52.378Z,22.40
2022-08-26T01:19:23.900Z,22.40
2022-08-26T01:21:55.424Z,22.38
2022-08-26T01:24:27.996Z,22.38
2022-08-26T01:26:59.547Z,22.40
2022-08-26T01:29:31.426Z,22.40
2022-08-26T01:32:02.965Z,22.38
2022-08-26T01:34:37.039Z,22.34
2022-08-26T01:37:15.550Z,22.35
2022-08-26T01:39:48.066Z,22.29
2022-08-26T01:42:19.649Z,22.25
2022-08-26T01:44:51.827Z,22.18
2022-08-26T01:47:23.452Z,22.15
2022-08-26T01:49:55.385Z,22.12
2022-08-26T01:52:28.231Z,22.10
2022-08-26T01:55:00.472Z,22.03
2022-08-26T01:57:32.022Z,22.03
2022-08-26T02:00:04.362Z,21.98
2022-08-26T02:02:36.415Z,21.95
2022-08-26T02:05:08.313Z,21.97
2022-08-26T02:07:39.850Z,21.91
2022-08-26T02:10:11.380Z,21.87
2022-08-26T02:12:42.924Z,21.85
2022-08-26T02:15:14.911Z,21.84
2022-08-26T02:17:48.803Z,21.82
2022-08-26T02:20:26.432Z,21.78
2022-08-26T02:22:58.890Z,21.75
2022-08-26T02:25:30.783Z,21.75
2022-08-26T02:28:02.338Z,21.68
2022-08-26T02:30:34.499Z,21.66
2022-08-26T02:33:07.355Z,21.64
2022-08-26T02:35:39.823Z,21.58
2022-08-26T02:38:11.413Z,21.56
2022-08-26T02:40:44.187Z,21.50
2022-08-26T02:43:15.719Z,21.51
2022-08-26T02:45:47.936Z,21.47
2022-08-26T02:48:19.623Z,21.42
2022-08-26T02:50:51.488Z,21.38
2022-08-26T02:53:25.449Z,21.35
2022-08-26T02:55:57.375Z,21.35
2022-08-26T02:58:31.763Z,21.33
2022-08-26T03:01:04.984Z,21.31
2022-08-26T03:03:36.937Z,21.30
2022-08-26T03:06:08.893Z,21.26
2022-08-26T03:08:40.408Z,21.22
2022-08-26T03:11:12.749Z,21.24
2022-08-26T03:13:45.226Z,21.21
2022-08-26T03:16:17.204Z,21.22
2022-08-26T03:18:52.426Z,21.22
2022-08-26T03:21:24.400Z,21.25
2022-08-26T03:23:58.587Z,21.21
2022-08-26T03:26:30.811Z,21.15
2022-08-26T03:29:21.222Z,21.16
2022-08-26T03:31:53.589Z,21.15
2022-08-26T03:34:25.516Z,21.12
2022-08-26T03:36:57.243Z,21.09
2022-08-26T03:39:31.600Z,21.03
2022-08-26T03:42:04.296Z,21.06
2022-08-26T03:44:36.113Z,21.04
2022-08-26T03:47:11.720Z,21.01
2022-08-26T03:49:43.691Z,21.02
2022-08-26T03:52:16.753Z,20.97
2022-08-26T03:54:48.279Z,20.96
2022-08-26T03:57:19.844Z,20.96
2022-08-26T03:59:51.703Z,21.00
2022-08-26T04:02:23.321Z,21.03
2022-08-26T04:04:54.934Z,21.01
2022-08-26T04:07:27.064Z,20.92
2022-08-26T04:09:59.001Z,20.98
2022-08-26T04:12:30.631Z,20.96
2022-08-26T04:15:02.501Z,20.95
2022-08-26T04:17:34.527Z,20.94
2022-08-26T04:20:07.448Z,20.95
2022-08-26T04:22:39.000Z,20.96
2022-08-26T04:25:12.247Z,21.00
2022-08-26T04:27:43.763Z,20.96
2022-08-26T04:30:16.666Z,20.97
2022-08-26T04:32:48.693Z,20.97
2022-08-26T04:35:25.641Z,20.97
2022-08-26T04:37:58.245Z,21.01
2022-08-26T04:40:30.206Z,20.97
2022-08-26T04:43:02.268Z,21.04
2022-08-26T04:45:34.138Z,21.08
2022-08-26T04:48:05.880Z,21.13
2022-08-26T04:50:43.437Z,21.18
2022-08-26T04:53:15.132Z,21.24
2022-08-26T04:55:48.387Z,21.32
2022-08-26T04:58:20.136Z,21.34
2022-08-26T05:00:52.523Z,21.40
2022-08-26T05:03:27.265Z,21.49
2022-08-26T05:06:02.536Z,21.54
2022-08-26T05:08:34.573Z,21.69
2022-08-26T05:11:06.200Z,21.74
2022-08-26T05:13:41.346Z,21.82
2022-08-26T05:16:13.250Z,21.94
2022-08-26T05:18:45.654Z,21.97
2022-08-26T05:21:18.246Z,21.92
2022-08-26T05:23:51.327Z,22.01
2022-08-26T05:26:23.369Z,22.13
2022-08-26T05:28:58.095Z,22.31
2022-08-26T05:31:31.036Z,22.46
2022-08-26T05:34:03.865Z,22.68
2022-08-26T05:36:35.508Z,22.77
2022-08-26T05:39:07.468Z,22.88
2022-08-26T05:41:39.348Z,22.98
2022-08-26T05:44:11.194Z,23.13
2022-08-26T05:46:44.113Z,23.32
2022-08-26T05:49:16.539Z,23.47
2022-08-26T05:51:48.134Z,23.51
2022-08-26T05:54:22.695Z,23.43
2022-08-26T05:56:54.201Z,23.47
2022-08-26T05:59:26.799Z,23.61
2022-08-26T06:01:59.681Z,23.68
2022-08-26T06:04:31.808Z,23.75
2022-08-26T06:07:03.521Z,23.84
2022-08-26T06:09:37.066Z,23.79
2022-08-26T06:12:12.887Z,23.86
2022-08-26T06:14:48.993Z,23.72
2022-08-26T06:17:20.643Z,23.56
2022-08-26T06:19:52.495Z,23.49
2022-08-26T06:22:59.310Z,23.52
2022-08-26T06:25:40.402Z,23.76
2022-08-26T06:28:13.444Z,23.88
2022-08-26T06:30:45.543Z,24.08
2022-08-26T06:33:17.199Z,24.38
2022-08-26T06:35:50.517Z,24.40
2022-08-26T06:38:22.311Z,24.76
2022-08-26T06:40:55.167Z,24.86
2022-08-26T06:43:26.743Z,24.94
2022-08-26T06:45:58.626Z,24.70
2022-08-26T06:48:30.206Z,24.75
2022-08-26T06:51:02.054Z,24.80
2022-08-26T06:53:33.579Z,25.12
2022-08-26T06:56:06.555Z,25.47
2022-08-26T06:58:38.111Z,25.68
2022-08-26T07:01:11.699Z,25.79
2022-08-26T07:03:43.350Z,26.01
2022-08-26T07:06:21.359Z,26.21
2022-08-26T07:08:53.449Z,26.49
2022-08-26T07:11:25.489Z,26.61
2022-08-26T07:13:59.453Z,26.88
2022-08-26T07:16:32.190Z,27.07
2022-08-26T07:19:11.078Z,27.10
2022-08-26T07:21:42.933Z,27.08
2022-08-26T07:24:15.008Z,27.09
2022-08-26T07:26:46.682Z,27.53
2022-08-26T07:29:20.045Z,27.65
2022-08-26T07:31:56.363Z,27.57
2022-08-26T07:34:28.811Z,27.67
2022-08-26T07:37:01.090Z,27.69
2022-08-26T07:39:33.029Z,27.68
2022-08-26T07:42:07.566Z,27.46
2022-08-26T07:44:40.523Z,27.65
2022-08-26T07:47:24.835Z,27.91
2022-08-26T07:49:57.913Z,27.89
2022-08-26T07:52:29.432Z,28.19
2022-08-26T07:55:01.396Z,28.27
2022-08-26T07:57:34.507Z,28.33
2022-08-26T08:00:07.426Z,28.65
2022-08-26T08:02:38.934Z,28.50
2022-08-26T08:05:10.955Z,28.53
2022-08-26T08:07:45.598Z,28.74
2022-08-26T08:10:18.769Z,29.05
2022-08-26T08:12:52.613Z,29.50
2022-08-26T08:15:26.911Z,29.83
2022-08-26T08:18:00.647Z,30.28
2022-08-26T08:20:32.798Z,30.12
2022-08-26T08:23:05.120Z,30.59
2022-08-26T08:25:38.375Z,30.41
2022-08-26T08:28:10.036Z,31.13
2022-08-26T08:30:42.837Z,30.85
2022-08-26T08:33:14.833Z,30.36
2022-08-26T08:35:46.757Z,30.21
2022-08-26T08:38:18.275Z,30.72
2022-08-26T08:40:50.224Z,30.82
2022-08-26T08:43:22.380Z,30.52
2022-08-26T08:45:54.515Z,30.05
2022-08-26T08:48:27.822Z,30.18
2022-08-26T08:51:00.138Z,30.54
2022-08-26T08:53:31.682Z,30.88
2022-08-26T08:56:03.251Z,30.99
2022-08-26T08:58:36.384Z,30.50
2022-08-26T09:01:08.276Z,30.83
2022-08-26T09:03:41.824Z,30.75
2022-08-26T09:06:20.376Z,30.83
2022-08-26T09:08:52.245Z,31.09
2022-08-26T09:11:24.227Z,31.14
2022-08-26T09:13:56.255Z,31.02
2022-08-26T09:16:27.834Z,30.83
2022-08-26T09:18:59.711Z,30.90
2022-08-26T09:21:31.355Z,31.07
2022-08-26T09:24:03.341Z,31.34
2022-08-26T09:26:34.882Z,31.44
2022-08-26T09:29:09.072Z,31.57
2022-08-26T09:31:41.422Z,32.01
2022-08-26T09:34:17.285Z,32.58
2022-08-26T09:36:49.240Z,32.84
2022-08-26T09:39:21.067Z,32.61
2022-08-26T09:41:52.910Z,32.42
2022-08-26T09:44:25.468Z,32.59
2022-08-26T09:46:57.338Z,33.01
2022-08-26T09:49:35.111Z,32.75
2022-08-26T09:52:07.484Z,32.56
2022-08-26T09:54:40.245Z,32.56
2022-08-26T09:57:12.836Z,32.72
2022-08-26T09:59:45.339Z,32.31
2022-08-26T10:02:16.930Z,32.25
2022-08-26T10:04:49.272Z,32.01
2022-08-26T10:07:21.482Z,32.02
2022-08-26T10:09:53.401Z,31.97
2022-08-26T10:12:25.685Z,31.70
2022-08-26T10:14:57.240Z,31.53
2022-08-26T10:17:30.909Z,31.30
2022-08-26T10:20:03.090Z,31.07
2022-08-26T10:22:35.055Z,31.04
2022-08-26T10:25:06.631Z,31.24
2022-08-26T10:27:38.561Z,31.69
2022-08-26T10:30:22.816Z,31.66
2022-08-26T10:32:54.803Z,31.27
2022-08-26T10:35:27.059Z,31.65
2022-08-26T10:37:59.057Z,31.89
2022-08-26T10:40:31.258Z,31.67
2022-08-26T10:43:08.495Z,32.01
2022-08-26T10:45:42.781Z,32.01
2022-08-26T10:48:15.377Z,32.33
2022-08-26T10:50:47.446Z,32.48
2022-08-26T10:53:19.663Z,32.30
2022-08-26T10:55:57.016Z,33.07
2022-08-26T10:58:28.933Z,33.47
2022-08-26T11:01:22.826Z,33.09
2022-08-26T11:03:55.633Z,32.40
2022-08-26T11:06:29.662Z,32.49
2022-08-26T11:09:01.852Z,32.29
2022-08-26T11:11:35.148Z,32.09
2022-08-26T11:14:07.866Z,31.85
2022-08-26T11:16:42.929Z,31.68
2022-08-26T11:19:15.262Z,31.72
2022-08-26T11:21:47.907Z,31.25
2022-08-26T11:24:22.327Z,31.19
2022-08-26T11:26:56.173Z,31.22
2022-08-26T11:29:28.213Z,31.11
2022-08-26T11:31:59.863Z,31.05
2022-08-26T11:34:31.485Z,31.04
2022-08-26T11:37:04.053Z,30.62
2022-08-26T11:39:36.938Z,30.28
2022-08-26T11:42:10.543Z,29.80
2022-08-26T11:44:49.112Z,29.73
2022-08-26T11:47:22.519Z,29.37
2022-08-26T11:49:56.069Z,29.20
2022-08-26T11:52:29.179Z,28.85
2022-08-26T11:55:01.411Z,28.66
2022-08-26T11:57:33.421Z,27.82
2022-08-26T12:00:07.279Z,27.71
2022-08-26T12:02:40.310Z,27.71
2022-08-26T12:05:12.091Z,27.62
2022-08-26T12:07:44.496Z,27.46
2022-08-26T12:10:16.319Z,27.33
2022-08-26T12:12:48.174Z,27.11
2022-08-26T12:15:20.352Z,26.74
2022-08-26T12:17:54.325Z,26.56
2022-08-26T12:20:26.139Z,26.35
2022-08-26T12:22:58.834Z,26.47
2022-08-26T12:25:36.193Z,26.36
2022-08-26T12:28:08.544Z,26.38
2022-08-26T12:30:40.162Z,26.24
2022-08-26T12:33:22.915Z,26.35
2022-08-26T12:35:56.643Z,26.32
2022-08-26T12:38:28.799Z,26.19
2022-08-26T12:41:00.485Z,26.01
2022-08-26T12:43:32.083Z,25.47
2022-08-26T12:46:06.806Z,25.04
2022-08-26T12:48:39.048Z,24.08
2022-08-26T12:51:10.603Z,23.55
2022-08-26T12:53:42.588Z,23.21
2022-08-26T12:56:14.108Z,22.85
2022-08-26T12:58:46.341Z,22.53
2022-08-26T13:01:18.585Z,22.40
2022-08-26T13:03:50.521Z,22.27
2022-08-26T13:06:29.671Z,22.16
2022-08-26T13:09:01.589Z,22.01
2022-08-26T13:11:33.121Z,21.83
2022-08-26T13:14:06.973Z,21.59
2022-08-26T13:16:39.297Z,21.38
2022-08-26T13:19:11.342Z,21.16
2022-08-26T13:21:42.919Z,21.01
2022-08-26T13:24:14.768Z,20.83
2022-08-26T13:26:46.302Z,20.68
2022-08-26T13:29:18.222Z,20.68
2022-08-26T13:31:49.828Z,20.63
2022-08-26T13:34:21.885Z,20.64
2022-08-26T13:36:54.090Z,20.68
2022-08-26T13:39:26.137Z,20.78
2022-08-26T13:41:57.777Z,20.89
2022-08-26T13:44:29.345Z,20.94
2022-08-26T13:47:00.871Z,20.95
2022-08-26T13:49:32.730Z,21.04
2022-08-26T13:52:04.302Z,21.04
2022-08-26T13:54:36.511Z,21.15
2022-08-26T13:57:08.092Z,21.26
2022-08-26T13:59:40.017Z,21.33
2022-08-26T14:02:12.008Z,21.31
2022-08-26T14:04:43.924Z,21.21
2022-08-26T14:07:15.467Z,20.92
2022-08-26T14:09:47.363Z,20.58
2022-08-26T14:12:18.944Z,20.73
2022-08-26T14:14:50.833Z,20.83
2022-08-26T14:17:22.424Z,20.86
2022-08-26T14:19:54.498Z,20.78
2022-08-26T14:22:26.043Z,20.78
2022-08-26T14:24:58.004Z,20.57
2022-08-26T14:27:29.570Z,20.38
2022-08-26T14:30:01.517Z,20.10
2022-08-26T14:32:33.319Z,19.95
2022-08-26T14:35:05.238Z,19.87
2022-08-26T14:37:37.210Z,19.86
2022-08-26T14:40:09.304Z,19.84
2022-08-26T14:42:41.256Z,19.78
2022-08-26T14:45:13.790Z,19.57
2022-08-26T14:47:45.347Z,19.47
2022-08-26T14:50:17.782Z,19.42
2022-08-26T14:53:08.292Z,19.42
2022-08-26T14:55:39.878Z,19.44
2022-08-26T14:58:11.785Z,19.47
2022-08-26T15:00:43.306Z,19.44
2022-08-26T15:05:51.668Z,19.53
2022-08-26T15:08:23.688Z,19.59
2022-08-26T15:10:55.267Z,19.62
2022-08-26T15:13:27.366Z,19.61
2022-08-26T15:15:59.013Z,19.59
2022-08-26T15:18:31.934Z,19.67
2022-08-26T15:21:03.478Z,19.70
2022-08-26T15:23:35.557Z,19.67
2022-08-26T15:26:07.407Z,19.66
2022-08-26T15:28:39.307Z,19.72
2022-08-26T15:31:10.983Z,19.75
2022-08-26T15:33:43.139Z,19.81
2022-08-26T15:36:14.707Z,19.86
2022-08-26T15:38:46.570Z,19.94
2022-08-26T15:41:18.093Z,19.91
2022-08-26T15:43:49.984Z,19.88
2022-08-26T15:46:21.575Z,19.81
2022-08-26T15:48:53.566Z,19.79
2022-08-26T15:51:25.143Z,19.79
2022-08-26T15:53:57.214Z,19.82
2022-08-26T15:56:28.811Z,19.84
2022-08-26T15:59:01.435Z,19.85
2022-08-26T16:01:33.566Z,19.88
2022-08-26T16:04:05.559Z,19.86
2022-08-26T16:06:37.141Z,19.87
2022-08-26T16:09:09.102Z,19.87
2022-08-26T16:11:40.888Z,19.87
2022-08-26T16:14:12.607Z,19.85
2022-08-26T16:16:44.143Z,19.81
2022-08-26T16:19:15.807Z,19.81
2022-08-26T16:21:47.986Z,19.83
2022-08-26T16:24:25.900Z,19.82
2022-08-26T16:26:58.822Z,19.86
2022-08-26T16:29:32.818Z,18.69
2022-08-26T16:32:08.615Z,19.89
2022-08-26T16:34:46.988Z,19.92
2022-08-26T16:37:28.073Z,19.94
2022-08-26T16:40:00.079Z,19.96
2022-08-26T16:42:31.716Z,20.02
2022-08-26T16:45:03.564Z,20.05
2022-08-26T16:47:35.140Z,20.04
2022-08-26T16:50:08.691Z,20.04
2022-08-26T16:52:40.309Z,19.97
2022-08-26T16:55:12.236Z,19.98
2022-08-26T16:57:43.757Z,19.98
2022-08-26T17:00:17.341Z,20.01
2022-08-26T17:02:49.236Z,20.05
2022-08-26T17:05:21.134Z,20.11
2022-08-26T17:07:52.884Z,20.11
2022-08-26T17:10:24.851Z,20.11
2022-08-26T17:12:56.560Z,20.07
2022-08-26T17:15:28.420Z,20.09
2022-08-26T17:18:00.449Z,20.09
2022-08-26T17:20:32.323Z,20.10
2022-08-26T17:23:04.257Z,20.09
2022-08-26T17:25:35.854Z,20.08
2022-08-26T17:28:13.177Z,20.14
2022-08-26T17:30:45.143Z,20.11
2022-08-26T17:33:18.664Z,20.12
2022-08-26T17:35:53.717Z,20.10
2022-08-26T17:38:25.626Z,20.12
2022-08-26T17:40:57.466Z,20.09
2022-08-26T17:43:29.670Z,20.13
2022-08-26T17:46:06.628Z,20.16
2022-08-26T17:48:39.152Z,20.16
2022-08-26T17:51:11.047Z,20.17
2022-08-26T17:53:42.961Z,20.15
2022-08-26T17:56:14.557Z,20.08
2022-08-26T17:58:51.036Z,20.05
2022-08-26T18:01:23.639Z,20.05
2022-08-26T18:04:00.074Z,20.07
2022-08-26T18:06:32.545Z,20.07
2022-08-26T18:09:04.154Z,20.06
2022-08-26T18:11:35.711Z,20.03
2022-08-26T18:14:07.275Z,20.05
2022-08-26T18:16:39.497Z,20.00
2022-08-26T18:19:11.040Z,20.02
2022-08-26T18:21:42.620Z,19.99
2022-08-26T18:24:14.509Z,20.03
2022-08-26T18:26:49.489Z,20.03
2022-08-26T18:29:21.882Z,20.05
2022-08-26T18:31:53.452Z,20.06
2022-08-26T18:34:25.052Z,20.06
2022-08-26T18:37:03.363Z,20.03
2022-08-26T18:39:35.084Z,20.01
2022-08-26T18:42:06.641Z,19.95
2022-08-26T18:44:38.567Z,19.95
2022-08-26T18:47:10.074Z,19.96
2022-08-26T18:49:42.038Z,19.95
2022-08-26T18:52:13.572Z,19.96
2022-08-26T18:54:45.217Z,19.98
2022-08-26T18:57:17.253Z,19.97
2022-08-26T18:59:49.119Z,19.98
2022-08-26T19:02:20.719Z,20.01
2022-08-26T19:04:52.827Z,20.01
2022-08-26T19:07:25.371Z,20.00
2022-08-26T19:09:57.305Z,20.02
2022-08-26T19:12:30.000Z,20.04
2022-08-26T19:15:04.333Z,20.03
2022-08-26T19:17:36.191Z,20.03
2022-08-26T19:20:07.728Z,20.04
2022-08-26T19:22:39.733Z,20.01
2022-08-26T19:25:11.300Z,19.99
2022-08-26T19:27:42.885Z,20.04
2022-08-26T19:30:15.069Z,20.05
2022-08-26T19:32:47.083Z,20.10
2022-08-26T19:35:18.606Z,20.10
2022-08-26T19:37:50.456Z,20.10
2022-08-26T19:40:23.365Z,20.09
2022-08-26T19:42:54.952Z,20.09
2022-08-26T19:45:26.518Z,20.07
2022-08-26T19:47:58.798Z,20.09
2022-08-26T19:50:30.333Z,20.12
2022-08-26T19:53:04.380Z,20.13
2022-08-26T19:55:36.042Z,20.11
2022-08-26T19:58:08.037Z,20.07
2022-08-26T20:00:42.109Z,20.01
2022-08-26T20:03:16.018Z,19.97
2022-08-26T20:05:48.800Z,19.95
2022-08-26T20:08:22.812Z,19.94
2022-08-26T20:10:54.441Z,19.91
2022-08-26T20:13:26.521Z,19.92
2022-08-26T20:15:58.062Z,19.89
2022-08-26T20:18:48.486Z,19.89
2022-08-26T20:21:29.484Z,19.85
2022-08-26T20:24:01.358Z,19.89
2022-08-26T20:26:32.898Z,19.89
2022-08-26T20:29:04.735Z,19.87
2022-08-26T20:31:36.312Z,19.90
2022-08-26T20:34:08.359Z,19.85
2022-08-26T20:36:39.920Z,19.87
2022-08-26T20:39:11.798Z,19.87
2022-08-26T20:41:43.819Z,19.87
2022-08-26T20:44:17.072Z,19.90
2022-08-26T20:46:48.586Z,19.90
2022-08-26T20:49:20.439Z,19.92
2022-08-26T20:51:52.027Z,19.92
2022-08-26T20:54:28.149Z,19.93
2022-08-26T20:57:00.096Z,19.93
2022-08-26T20:59:31.911Z,19.92
2022-08-26T21:02:03.459Z,19.92
2022-08-26T21:04:35.429Z,19.91
2022-08-26T21:07:07.399Z,19.90
2022-08-26T21:09:38.922Z,19.89
2022-08-26T21:12:10.842Z,19.89
2022-08-26T21:14:44.771Z,19.88
2022-08-26T21:17:19.339Z,19.89
2022-08-26T21:19:51.103Z,19.91
2022-08-26T21:22:22.925Z,19.87
2022-08-26T21:24:54.453Z,19.88
2022-08-26T21:27:26.703Z,19.88
2022-08-26T21:29:59.454Z,19.83
2022-08-26T21:32:31.300Z,19.88
2022-08-26T21:35:02.831Z,19.88
2022-08-26T21:37:34.690Z,19.90
2022-08-26T21:40:06.924Z,19.86
2022-08-26T21:42:38.946Z,19.86
2022-08-26T21:45:10.466Z,19.87
2022-08-26T21:47:42.583Z,19.86
2022-08-26T21:50:14.111Z,19.86
2022-08-26T21:52:46.204Z,19.88
2022-08-26T21:55:17.876Z,19.86
2022-08-26T21:57:49.903Z,19.83
2022-08-26T22:00:21.532Z,19.79
2022-08-26T22:02:53.504Z,19.81
2022-08-26T22:05:25.042Z,19.76
2022-08-26T22:07:56.913Z,19.78
2022-08-26T22:10:28.428Z,19.82
2022-08-26T22:13:00.383Z,19.84
2022-08-26T22:15:35.293Z,19.85
2022-08-26T22:18:09.363Z,19.86
2022-08-26T22:20:41.007Z,19.86
2022-08-26T22:23:12.927Z,19.85
2022-08-26T22:25:44.456Z,19.80
2022-08-26T22:28:16.340Z,19.82
2022-08-26T22:30:48.404Z,19.79
2022-08-26T22:33:20.298Z,19.75
2022-08-26T22:35:53.094Z,19.73
2022-08-26T22:38:25.134Z,19.71
2022-08-26T22:40:57.212Z,19.66
2022-08-26T22:43:30.447Z,19.64
2022-08-26T22:46:03.678Z,19.60
2022-08-26T22:48:35.557Z,19.57
2022-08-26T22:51:07.549Z,19.54
2022-08-26T22:53:42.165Z,19.51
2022-08-26T22:56:15.419Z,19.50
2022-08-26T22:58:47.792Z,19.48
2022-08-26T23:01:20.740Z,19.49
2022-08-26T23:03:52.870Z,19.48
2022-08-26T23:06:24.920Z,19.43
2022-08-26T23:08:56.694Z,19.41
2022-08-26T23:11:28.804Z,19.39
2022-08-26T23:14:02.847Z,19.40
2022-08-26T23:16:39.409Z,19.41
2022-08-26T23:19:11.252Z,19.45
2022-08-26T23:21:43.210Z,19.46
2022-08-26T23:24:14.828Z,19.48
2022-08-26T23:26:46.791Z,19.48
2022-08-26T23:29:18.456Z,19.48
2022-08-26T23:31:51.045Z,19.47
2022-08-26T23:34:41.598Z,19.46
2022-08-26T23:37:13.565Z,18.83
2022-08-26T23:39:45.582Z,19.49
2022-08-26T23:42:17.992Z,19.45
2022-08-26T23:44:49.706Z,19.44
2022-08-26T23:47:21.898Z,19.44
2022-08-26T23:49:53.534Z,19.43
2022-08-26T23:52:44.481Z,19.45
2022-08-26T23:55:16.686Z,19.45
2022-08-26T23:57:48.415Z,19.47
